If you wish to contribute or participate in the discussions about articles you are invited to join SKYbrary as a registered user

 Actions

Aurangabad Airport

From SKYbrary Wiki

VAAU
Airport
ICAO: VAAU
Summary
Name Aurangabad Airport
Region Asia and Pacific
Territory India IN.gif
Location Aurangabad, Maharashtra
Serving
Coordinates 19° 51' 58.85" N, 75° 23' 50.51" E
Runways
Designator Length Width Surface ROPS
9/27 2351 m7,713.255 ft
45 m147.638 ft
PEM yes/yes


METAR
Observation VAAU 230000Z 00000KT 6000 NSC 23/08 Q1014 NOSIG
Station Aurangabad Chikalthan Aerodrome
Date/Time 23 March 2019 00:00:00
Wind direction
Wind speed 00 kts
Lowest cloud amount nil significant cloud
Temperature 23°C
Dew point 8°C
Humidity 38%
QNH 1014 hPa
Weather condition n/a

BS
Tag(s) Bird Strike
WX
Tag(s) Cumulonimbus
Tropical Revolving Storm

Aurangabad Airport

ICAO: VAAU IATA: IXU

Chikkalthana Airport

Description

Aurangabad Airport, also known as Chikkalthana Airport, is a public airport located 4 km2.16 nm
4,000 m
13,123.36 ft
east of the city centre of Aurangabad, in the state of Maharashtra, India.

Climatology

Hot, semi-arid climate (Köppen climate classification BSh) - hot, sometimes extremely hot summers and mild to warm winters, with low annual precipitation, most of which occurs during the monsoon season (Jul-Sep).

Maps

Terrain

Loading map...

Airport Layout

Loading map...


Accidents & Serious Incidents at or in vicinity of VAAU

None on SKYbrary